DAL2859 KLGA-KBOS
Flight info
| Callsign | DAL2859 |
|---|---|
| Flight time | 0h 39m |
| Altitude | 21000 |
| Route | MERIT ROBUC3 |
| Aircraft | BCS3/M-SBDE2E3GIRWXY/LB1 |
Departure
| Time | 2026-05-06 21:58 |
|---|---|
| Airport | LaGuardia Airport (KLGA) |
Arrival
| Time | 2026-05-06 22:37 |
|---|---|
| Airport | Boston Logan International Airport (KBOS) |
| Time | Latitude | Longitude | Altitude | Speed | Heading |
|---|---|---|---|---|---|
| 2026-05-06 21:27 | 40.76903 | -73.85860 | 20 ft | 0 kts | 132° |
| 2026-05-06 21:49 | 40.76916 | -73.85884 | 20 ft | 4 kts | 99° |
| 2026-05-06 21:49 | 40.76913 | -73.85915 | 20 ft | 4 kts | 51° |
| 2026-05-06 21:49 | 40.76912 | -73.85918 | 20 ft | 4 kts | 44° |
| 2026-05-06 21:49 | 40.76931 | -73.85899 | 20 ft | 2 kts | 32° |
| 2026-05-06 21:50 | 40.76932 | -73.85898 | 20 ft | 0 kts | 32° |
| 2026-05-06 21:52 | 40.76933 | -73.85898 | 20 ft | 1 kts | 32° |
| 2026-05-06 21:52 | 40.76946 | -73.85886 | 22 ft | 0 kts | 32° |
| 2026-05-06 21:53 | 40.76952 | -73.85884 | 21 ft | 3 kts | 19° |
| 2026-05-06 21:53 | 40.77010 | -73.85888 | 20 ft | 14 kts | 350° |
| 2026-05-06 21:53 | 40.77111 | -73.85869 | 12 ft | 13 kts | 37° |
| 2026-05-06 21:53 | 40.77147 | -73.85856 | 14 ft | 4 kts | 358° |
| 2026-05-06 21:54 | 40.77175 | -73.85883 | 13 ft | 7 kts | 310° |
| 2026-05-06 21:54 | 40.77186 | -73.85904 | 13 ft | 0 kts | 303° |
| 2026-05-06 21:54 | 40.77178 | -73.85914 | 13 ft | 7 kts | 220° |
| 2026-05-06 21:55 | 40.77156 | -73.85935 | 12 ft | 0 kts | 213° |
| 2026-05-06 21:56 | 40.77129 | -73.85934 | 13 ft | 7 kts | 154° |
| 2026-05-06 21:56 | 40.77124 | -73.85843 | 13 ft | 13 kts | 54° |
| 2026-05-06 21:56 | 40.77175 | -73.85770 | 16 ft | 9 kts | 44° |
| 2026-05-06 21:57 | 40.77217 | -73.85745 | 16 ft | 6 kts | 343° |
| 2026-05-06 21:57 | 40.77254 | -73.85809 | 17 ft | 15 kts | 302° |
| 2026-05-06 21:57 | 40.77398 | -73.86117 | 16 ft | 84 kts | 303° |
| 2026-05-06 21:57 | 40.77896 | -73.87119 | 92 ft | 162 kts | 301° |
| 2026-05-06 21:58 | 40.78483 | -73.88301 | 789 ft | 150 kts | 297° |
| 2026-05-06 21:58 | 40.79023 | -73.89412 | 1652 ft | 140 kts | 296° |
| 2026-05-06 21:58 | 40.79617 | -73.90403 | 2590 ft | 136 kts | 299° |
| 2026-05-06 21:58 | 40.80179 | -73.91321 | 3652 ft | 121 kts | 298° |
| 2026-05-06 21:59 | 40.80697 | -73.92278 | 4420 ft | 142 kts | 296° |
| 2026-05-06 21:59 | 40.81359 | -73.93405 | 5169 ft | 165 kts | 301° |
| 2026-05-06 21:59 | 40.82068 | -73.94666 | 6067 ft | 186 kts | 298° |
| 2026-05-06 21:59 | 40.82901 | -73.96083 | 6630 ft | 210 kts | 302° |
| 2026-05-06 22:00 | 40.83930 | -73.97804 | 6956 ft | 251 kts | 303° |
| 2026-05-06 22:00 | 40.85094 | -73.99491 | 7699 ft | 258 kts | 317° |
| 2026-05-06 22:00 | 40.86853 | -74.00217 | 8450 ft | 284 kts | 353° |
| 2026-05-06 22:00 | 40.88789 | -73.99432 | 9193 ft | 311 kts | 28° |
| 2026-05-06 22:01 | 40.90290 | -73.97260 | 9920 ft | 333 kts | 62° |
| 2026-05-06 22:01 | 40.90970 | -73.94322 | 10658 ft | 336 kts | 78° |
| 2026-05-06 22:01 | 40.91802 | -73.91437 | 11373 ft | 340 kts | 62° |
| 2026-05-06 22:01 | 40.92924 | -73.88542 | 12138 ft | 366 kts | 61° |
| 2026-05-06 22:02 | 40.94152 | -73.85471 | 12915 ft | 390 kts | 60° |
| 2026-05-06 22:02 | 40.95609 | -73.82319 | 13687 ft | 412 kts | 55° |
| 2026-05-06 22:02 | 40.97235 | -73.79116 | 14381 ft | 432 kts | 54° |
| 2026-05-06 22:02 | 40.98982 | -73.75775 | 15095 ft | 451 kts | 53° |
| 2026-05-06 22:03 | 41.00817 | -73.72336 | 15826 ft | 462 kts | 53° |
| 2026-05-06 22:03 | 41.02718 | -73.68885 | 16568 ft | 465 kts | 49° |
| 2026-05-06 22:03 | 41.04889 | -73.65680 | 17362 ft | 470 kts | 45° |
| 2026-05-06 22:03 | 41.07083 | -73.62418 | 18128 ft | 478 kts | 50° |
| 2026-05-06 22:04 | 41.09180 | -73.58971 | 18821 ft | 483 kts | 47° |
| 2026-05-06 22:04 | 41.11439 | -73.55653 | 19696 ft | 487 kts | 45° |
| 2026-05-06 22:04 | 41.13625 | -73.52127 | 20315 ft | 501 kts | 47° |
| 2026-05-06 22:04 | 41.15905 | -73.48636 | 20579 ft | 509 kts | 44° |
| 2026-05-06 22:05 | 41.18216 | -73.45060 | 20706 ft | 512 kts | 47° |
| 2026-05-06 22:05 | 41.20494 | -73.41425 | 20796 ft | 509 kts | 45° |
| 2026-05-06 22:05 | 41.22826 | -73.37906 | 20807 ft | 508 kts | 46° |
| 2026-05-06 22:05 | 41.25072 | -73.34269 | 20815 ft | 508 kts | 47° |
| 2026-05-06 22:06 | 41.27391 | -73.30739 | 20823 ft | 506 kts | 45° |
| 2026-05-06 22:06 | 41.29661 | -73.27137 | 20817 ft | 509 kts | 47° |
| 2026-05-06 22:06 | 41.31942 | -73.23550 | 20820 ft | 507 kts | 45° |
| 2026-05-06 22:06 | 41.34242 | -73.19995 | 20828 ft | 507 kts | 47° |
| 2026-05-06 22:07 | 41.36496 | -73.16367 | 20829 ft | 507 kts | 46° |
| 2026-05-06 22:07 | 41.38605 | -73.12596 | 20798 ft | 512 kts | 59° |
| 2026-05-06 22:07 | 41.39802 | -73.08147 | 20726 ft | 510 kts | 80° |
| 2026-05-06 22:07 | 41.40208 | -73.03473 | 20772 ft | 508 kts | 87° |
| 2026-05-06 22:08 | 41.40427 | -72.98831 | 20802 ft | 510 kts | 89° |
| 2026-05-06 22:08 | 41.40597 | -72.94109 | 20791 ft | 510 kts | 89° |
| 2026-05-06 22:08 | 41.40760 | -72.89394 | 20814 ft | 510 kts | 88° |
| 2026-05-06 22:08 | 41.41242 | -72.84709 | 20824 ft | 512 kts | 80° |
| 2026-05-06 22:09 | 41.41884 | -72.80044 | 20826 ft | 512 kts | 82° |
| 2026-05-06 22:09 | 41.42276 | -72.75326 | 20831 ft | 511 kts | 85° |
| 2026-05-06 22:09 | 41.42828 | -72.70652 | 20835 ft | 511 kts | 81° |
| 2026-05-06 22:09 | 41.43308 | -72.65953 | 20837 ft | 510 kts | 85° |
| 2026-05-06 22:10 | 41.43776 | -72.61275 | 20843 ft | 511 kts | 81° |
| 2026-05-06 22:10 | 41.44314 | -72.56588 | 20829 ft | 510 kts | 84° |
| 2026-05-06 22:10 | 41.44734 | -72.51894 | 20837 ft | 510 kts | 83° |
| 2026-05-06 22:10 | 41.45287 | -72.47221 | 20836 ft | 510 kts | 82° |
| 2026-05-06 22:11 | 41.45714 | -72.42523 | 20841 ft | 511 kts | 84° |
| 2026-05-06 22:11 | 41.46230 | -72.37820 | 20840 ft | 510 kts | 82° |
| 2026-05-06 22:11 | 41.46696 | -72.33205 | 20839 ft | 509 kts | 84° |
| 2026-05-06 22:11 | 41.47149 | -72.28526 | 20838 ft | 510 kts | 82° |
| 2026-05-06 22:12 | 41.47768 | -72.23865 | 20817 ft | 511 kts | 77° |
| 2026-05-06 22:12 | 41.48726 | -72.19297 | 20819 ft | 510 kts | 72° |
| 2026-05-06 22:12 | 41.49949 | -72.14843 | 20293 ft | 512 kts | 64° |
| 2026-05-06 22:12 | 41.51622 | -72.10685 | 19721 ft | 504 kts | 59° |
| 2026-05-06 22:13 | 41.53276 | -72.06585 | 19212 ft | 500 kts | 65° |
| 2026-05-06 22:13 | 41.54695 | -72.02365 | 18761 ft | 497 kts | 65° |
| 2026-05-06 22:13 | 41.56202 | -71.98220 | 18297 ft | 493 kts | 65° |
| 2026-05-06 22:13 | 41.57428 | -71.93969 | 17787 ft | 488 kts | 72° |
| 2026-05-06 22:14 | 41.58629 | -71.89742 | 17263 ft | 486 kts | 67° |
| 2026-05-06 22:14 | 41.59968 | -71.85604 | 16745 ft | 483 kts | 70° |
| 2026-05-06 22:14 | 41.61104 | -71.81410 | 16316 ft | 478 kts | 70° |
| 2026-05-06 22:14 | 41.62389 | -71.77323 | 15938 ft | 476 kts | 68° |
| 2026-05-06 22:15 | 41.63544 | -71.73282 | 15569 ft | 453 kts | 71° |
| 2026-05-06 22:15 | 41.64659 | -71.69463 | 15224 ft | 430 kts | 68° |
| 2026-05-06 22:15 | 41.65770 | -71.65844 | 14855 ft | 411 kts | 71° |
| 2026-05-06 22:15 | 41.66726 | -71.62383 | 14503 ft | 394 kts | 70° |
| 2026-05-06 22:16 | 41.67748 | -71.59031 | 14150 ft | 385 kts | 69° |
| 2026-05-06 22:16 | 41.68723 | -71.55716 | 13784 ft | 381 kts | 71° |
| 2026-05-06 22:16 | 41.69653 | -71.52404 | 13394 ft | 379 kts | 69° |
| 2026-05-06 22:16 | 41.70650 | -71.49142 | 13010 ft | 378 kts | 69° |
| 2026-05-06 22:17 | 41.71637 | -71.45894 | 12649 ft | 376 kts | 69° |
| 2026-05-06 22:17 | 41.72650 | -71.42671 | 12266 ft | 373 kts | 68° |
| 2026-05-06 22:17 | 41.73799 | -71.39583 | 11973 ft | 370 kts | 59° |
| 2026-05-06 22:17 | 41.75185 | -71.36683 | 11745 ft | 371 kts | 57° |
| 2026-05-06 22:18 | 41.76457 | -71.33689 | 11486 ft | 368 kts | 63° |
| 2026-05-06 22:18 | 41.77671 | -71.30675 | 11257 ft | 367 kts | 59° |
| 2026-05-06 22:18 | 41.79001 | -71.27772 | 11141 ft | 365 kts | 60° |
| 2026-05-06 22:18 | 41.80222 | -71.24781 | 11100 ft | 366 kts | 62° |
| 2026-05-06 22:19 | 41.81461 | -71.21845 | 11076 ft | 366 kts | 59° |
| 2026-05-06 22:19 | 41.82760 | -71.18924 | 11051 ft | 365 kts | 60° |
| 2026-05-06 22:19 | 41.83952 | -71.15948 | 11039 ft | 354 kts | 63° |
| 2026-05-06 22:19 | 41.85167 | -71.13081 | 11044 ft | 354 kts | 58° |
| 2026-05-06 22:20 | 41.86466 | -71.10258 | 11058 ft | 355 kts | 60° |
| 2026-05-06 22:20 | 41.87666 | -71.07349 | 10752 ft | 354 kts | 62° |
| 2026-05-06 22:20 | 41.88894 | -71.04502 | 10512 ft | 352 kts | 59° |
| 2026-05-06 22:20 | 41.90145 | -71.01682 | 10273 ft | 351 kts | 60° |
| 2026-05-06 22:21 | 41.91359 | -70.98846 | 10041 ft | 349 kts | 61° |
| 2026-05-06 22:21 | 41.92553 | -70.96019 | 9799 ft | 347 kts | 60° |
| 2026-05-06 22:21 | 41.93782 | -70.93230 | 9544 ft | 346 kts | 60° |
| 2026-05-06 22:21 | 41.94983 | -70.90429 | 9227 ft | 345 kts | 62° |
| 2026-05-06 22:22 | 41.96162 | -70.87638 | 8887 ft | 343 kts | 62° |
| 2026-05-06 22:22 | 41.97373 | -70.84868 | 8583 ft | 344 kts | 62° |
| 2026-05-06 22:22 | 41.98557 | -70.82094 | 8296 ft | 339 kts | 63° |
| 2026-05-06 22:22 | 41.99728 | -70.79409 | 8179 ft | 338 kts | 59° |
| 2026-05-06 22:23 | 42.01016 | -70.76760 | 8106 ft | 338 kts | 57° |
| 2026-05-06 22:23 | 42.02383 | -70.74168 | 8056 ft | 340 kts | 52° |
| 2026-05-06 22:23 | 42.03963 | -70.71827 | 8033 ft | 336 kts | 44° |
| 2026-05-06 22:23 | 42.05616 | -70.69564 | 8025 ft | 340 kts | 48° |
| 2026-05-06 22:24 | 42.07133 | -70.67130 | 8022 ft | 339 kts | 50° |
| 2026-05-06 22:24 | 42.08716 | -70.64766 | 8018 ft | 340 kts | 42° |
| 2026-05-06 22:24 | 42.10633 | -70.62960 | 8025 ft | 335 kts | 24° |
| 2026-05-06 22:24 | 42.12748 | -70.61648 | 7794 ft | 332 kts | 17° |
| 2026-05-06 22:25 | 42.14907 | -70.60577 | 7527 ft | 332 kts | 13° |
| 2026-05-06 22:25 | 42.17110 | -70.59735 | 7241 ft | 325 kts | 4° |
| 2026-05-06 22:25 | 42.19313 | -70.59247 | 6965 ft | 319 kts | 1° |
| 2026-05-06 22:25 | 42.21499 | -70.58703 | 6658 ft | 324 kts | 7° |
| 2026-05-06 22:26 | 42.23695 | -70.57981 | 6360 ft | 322 kts | 6° |
| 2026-05-06 22:26 | 42.25885 | -70.57426 | 6059 ft | 319 kts | 4° |
| 2026-05-06 22:26 | 42.28030 | -70.56848 | 5728 ft | 318 kts | 7° |
| 2026-05-06 22:26 | 42.30186 | -70.56537 | 5390 ft | 305 kts | 346° |
| 2026-05-06 22:27 | 42.32130 | -70.57315 | 5167 ft | 283 kts | 324° |
| 2026-05-06 22:27 | 42.33837 | -70.58588 | 5088 ft | 279 kts | 316° |
| 2026-05-06 22:27 | 42.35420 | -70.60066 | 5060 ft | 274 kts | 313° |
| 2026-05-06 22:27 | 42.36931 | -70.61637 | 5043 ft | 273 kts | 312° |
| 2026-05-06 22:28 | 42.38417 | -70.63226 | 5030 ft | 273 kts | 311° |
| 2026-05-06 22:28 | 42.39817 | -70.64919 | 5017 ft | 266 kts | 304° |
| 2026-05-06 22:28 | 42.41059 | -70.66701 | 5001 ft | 250 kts | 303° |
| 2026-05-06 22:28 | 42.42273 | -70.68295 | 5000 ft | 241 kts | 306° |
| 2026-05-06 22:29 | 42.43504 | -70.69848 | 4997 ft | 242 kts | 305° |
| 2026-05-06 22:29 | 42.44692 | -70.71433 | 4990 ft | 237 kts | 303° |
| 2026-05-06 22:29 | 42.45843 | -70.73000 | 4995 ft | 234 kts | 303° |
| 2026-05-06 22:29 | 42.47022 | -70.74540 | 4993 ft | 236 kts | 305° |
| 2026-05-06 22:30 | 42.48208 | -70.76065 | 4991 ft | 235 kts | 305° |
| 2026-05-06 22:30 | 42.49388 | -70.77591 | 4990 ft | 235 kts | 304° |
| 2026-05-06 22:30 | 42.50571 | -70.79122 | 4987 ft | 236 kts | 305° |
| 2026-05-06 22:30 | 42.51775 | -70.80642 | 4984 ft | 237 kts | 305° |
| 2026-05-06 22:31 | 42.52965 | -70.82140 | 4883 ft | 238 kts | 306° |
| 2026-05-06 22:31 | 42.54186 | -70.83695 | 4451 ft | 236 kts | 306° |
| 2026-05-06 22:31 | 42.55347 | -70.85157 | 4160 ft | 221 kts | 305° |
| 2026-05-06 22:31 | 42.56281 | -70.86675 | 3674 ft | 198 kts | 279° |
| 2026-05-06 22:32 | 42.56219 | -70.88349 | 3285 ft | 178 kts | 242° |
| 2026-05-06 22:32 | 42.55647 | -70.89826 | 3123 ft | 174 kts | 234° |
| 2026-05-06 22:32 | 42.54985 | -70.91201 | 3054 ft | 175 kts | 236° |
| 2026-05-06 22:32 | 42.54350 | -70.92604 | 3016 ft | 172 kts | 237° |
| 2026-05-06 22:33 | 42.53500 | -70.93721 | 2786 ft | 181 kts | 206° |
| 2026-05-06 22:33 | 42.52254 | -70.94044 | 2445 ft | 180 kts | 193° |
| 2026-05-06 22:33 | 42.51039 | -70.94184 | 2200 ft | 170 kts | 191° |
| 2026-05-06 22:33 | 42.49885 | -70.94285 | 1952 ft | 161 kts | 191° |
| 2026-05-06 22:34 | 42.48898 | -70.94840 | 1828 ft | 155 kts | 211° |
| 2026-05-06 22:34 | 42.47921 | -70.95471 | 1747 ft | 154 kts | 201° |
| 2026-05-06 22:34 | 42.46863 | -70.95882 | 1720 ft | 160 kts | 194° |
| 2026-05-06 22:34 | 42.45766 | -70.96104 | 1607 ft | 159 kts | 194° |
| 2026-05-06 22:35 | 42.44742 | -70.96609 | 1510 ft | 155 kts | 202° |
| 2026-05-06 22:35 | 42.43738 | -70.97125 | 1404 ft | 154 kts | 201° |
| 2026-05-06 22:35 | 42.42722 | -70.97648 | 1283 ft | 158 kts | 199° |
| 2026-05-06 22:35 | 42.41703 | -70.98068 | 1121 ft | 145 kts | 197° |
| 2026-05-06 22:36 | 42.40726 | -70.98434 | 886 ft | 146 kts | 197° |
| 2026-05-06 22:36 | 42.39848 | -70.98809 | 636 ft | 127 kts | 200° |
| 2026-05-06 22:36 | 42.39043 | -70.99228 | 404 ft | 125 kts | 200° |
| 2026-05-06 22:36 | 42.38214 | -70.99657 | 244 ft | 130 kts | 201° |
| 2026-05-06 22:37 | 42.37360 | -71.00094 | 94 ft | 121 kts | 200° |
| 2026-05-06 22:37 | 42.36647 | -71.00437 | 16 ft | 90 kts | 200° |
| 2026-05-06 22:37 | 42.36241 | -71.00632 | 18 ft | 48 kts | 199° |
| 2026-05-06 22:37 | 42.36004 | -71.00774 | 13 ft | 23 kts | 225° |
| 2026-05-06 22:38 | 42.35925 | -71.00897 | 13 ft | 13 kts | 230° |
| 2026-05-06 22:38 | 42.35869 | -71.00986 | 15 ft | 12 kts | 230° |
| 2026-05-06 22:38 | 42.35836 | -71.01078 | 16 ft | 12 kts | 258° |
| 2026-05-06 22:38 | 42.35841 | -71.01209 | 19 ft | 16 kts | 278° |
| 2026-05-06 22:39 | 42.35855 | -71.01354 | 23 ft | 14 kts | 278° |
| 2026-05-06 22:39 | 42.35868 | -71.01447 | 25 ft | 16 kts | 281° |
| 2026-05-06 22:39 | 42.35881 | -71.01534 | 26 ft | 0 kts | 282° |
| 2026-05-06 22:39 | 42.35883 | -71.01551 | 24 ft | 9 kts | 279° |
| 2026-05-06 22:40 | 42.35900 | -71.01679 | 26 ft | 16 kts | 280° |
| 2026-05-06 22:40 | 42.35931 | -71.01847 | 26 ft | 22 kts | 291° |
| 2026-05-06 22:40 | 42.36012 | -71.02030 | 26 ft | 20 kts | 304° |
| 2026-05-06 22:40 | 42.36067 | -71.02156 | 29 ft | 13 kts | 300° |
| 2026-05-06 22:41 | 42.36193 | -71.02274 | 24 ft | 13 kts | 12° |
| 2026-05-06 22:41 | 42.36270 | -71.02204 | 27 ft | 9 kts | 66° |
| 2026-05-06 22:41 | 42.36295 | -71.02138 | 29 ft | 4 kts | 29° |
| 2026-05-06 22:42 | 42.36315 | -71.02131 | 26 ft | 2 kts | 11° |
| 2026-05-06 22:42 | 42.36320 | -71.02130 | 26 ft | 2 kts | 10° |
| 2026-05-06 22:42 | 42.36335 | -71.02126 | 26 ft | 0 kts | 9° |